createdAt,value
2019-02-15T00:02:24.078Z,46.47
2019-02-15T00:04:56.272Z,44.50
2019-02-15T00:07:29.365Z,45.47
2019-02-15T00:10:02.179Z,44.97
2019-02-15T00:12:33.421Z,43.30
2019-02-15T00:15:07.139Z,42.27
2019-02-15T00:17:53.677Z,43.33
2019-02-15T00:20:43.053Z,44.57
2019-02-15T00:23:15.316Z,41.83
2019-02-15T00:25:47.318Z,44.80
2019-02-15T00:28:19.055Z,44.65
2019-02-15T00:30:50.588Z,44.63
2019-02-15T00:33:21.951Z,43.57
2019-02-15T00:35:52.868Z,43.43
2019-02-15T00:38:23.241Z,42.83
2019-02-15T00:40:55.005Z,44.20
2019-02-15T00:43:25.819Z,41.00
2019-02-15T00:46:10.324Z,43.20
2019-02-15T00:48:41.809Z,41.68
2019-02-15T00:51:32.664Z,42.13
2019-02-15T00:54:24.080Z,42.13
2019-02-15T00:56:57.433Z,41.50
2019-02-15T00:59:30.463Z,43.60
2019-02-15T01:02:10.234Z,41.80
2019-02-15T01:04:56.873Z,41.57
2019-02-15T01:07:46.649Z,42.40
2019-02-15T01:10:19.488Z,39.60
2019-02-15T01:12:58.672Z,40.20
2019-02-15T01:15:32.078Z,42.63
2019-02-15T01:18:05.755Z,43.08
2019-02-15T01:20:39.427Z,40.10
2019-02-15T01:23:11.997Z,41.53
2019-02-15T01:25:46.463Z,41.40
2019-02-15T01:28:21.379Z,40.08
2019-02-15T01:30:59.250Z,43.30
2019-02-15T01:33:40.159Z,41.60
2019-02-15T01:36:30.042Z,40.75
2019-02-15T01:39:02.641Z,38.03
2019-02-15T01:41:35.683Z,37.80
2019-02-15T01:44:19.033Z,35.58
2019-02-15T01:46:51.643Z,35.53
2019-02-15T01:49:24.238Z,36.67
2019-02-15T01:51:55.536Z,36.83
2019-02-15T01:54:29.409Z,39.25
2019-02-15T01:57:01.584Z,38.08
2019-02-15T01:59:34.520Z,36.77
2019-02-15T02:02:08.690Z,37.95
2019-02-15T02:04:41.323Z,40.45
2019-02-15T02:07:14.654Z,40.43
2019-02-15T02:09:46.493Z,38.25
2019-02-15T02:12:18.526Z,37.93
2019-02-15T02:14:50.821Z,37.63
2019-02-15T02:17:22.865Z,37.95
2019-02-15T02:19:54.163Z,36.80
2019-02-15T02:22:28.316Z,37.63
2019-02-15T02:25:03.385Z,37.08
2019-02-15T02:27:35.732Z,38.10
2019-02-15T02:30:11.146Z,39.40
2019-02-15T02:32:43.261Z,39.05
2019-02-15T02:35:16.183Z,38.83
2019-02-15T02:37:47.207Z,37.00
2019-02-15T02:40:17.999Z,40.50
2019-02-15T02:42:51.041Z,39.05
2019-02-15T02:45:26.183Z,39.27
2019-02-15T02:47:59.526Z,39.05
2019-02-15T02:50:33.760Z,37.70
2019-02-15T02:53:07.017Z,37.03
2019-02-15T02:55:38.741Z,34.45
2019-02-15T02:58:12.024Z,35.08
2019-02-15T03:00:44.018Z,35.92
2019-02-15T03:03:15.570Z,33.48
2019-02-15T03:05:48.487Z,34.92
2019-02-15T03:08:21.335Z,35.58
2019-02-15T03:10:53.244Z,35.17
2019-02-15T03:13:23.944Z,36.42
2019-02-15T03:15:55.705Z,35.15
2019-02-15T03:18:28.437Z,34.58
2019-02-15T03:21:00.631Z,35.55
2019-02-15T03:23:34.103Z,34.23
2019-02-15T03:26:05.893Z,33.88
2019-02-15T03:28:40.275Z,34.18
2019-02-15T03:31:11.393Z,32.45
2019-02-15T03:33:43.991Z,31.62
2019-02-15T03:36:16.890Z,30.05
2019-02-15T03:38:50.936Z,30.90
2019-02-15T03:41:29.804Z,31.48
2019-02-15T03:44:04.197Z,31.68
2019-02-15T03:46:37.661Z,31.82
2019-02-15T03:49:10.450Z,29.23
2019-02-15T03:51:42.202Z,28.35
2019-02-15T03:54:13.812Z,28.87
2019-02-15T03:56:49.788Z,28.47
2019-02-15T03:59:21.194Z,30.35
2019-02-15T04:01:53.878Z,30.10
2019-02-15T04:04:25.339Z,29.27
2019-02-15T04:06:57.309Z,29.67
2019-02-15T04:09:29.694Z,27.73
2019-02-15T04:12:02.976Z,27.65
2019-02-15T04:14:35.497Z,28.23
2019-02-15T04:17:08.183Z,27.52
2019-02-15T04:19:40.082Z,27.20
2019-02-15T04:22:12.393Z,28.83
2019-02-15T04:24:47.196Z,27.40
2019-02-15T04:27:18.757Z,28.10
2019-02-15T04:29:50.563Z,28.52
2019-02-15T04:32:23.299Z,28.77
2019-02-15T04:34:55.086Z,28.98
2019-02-15T04:37:25.928Z,28.90
2019-02-15T04:39:58.080Z,28.92
2019-02-15T04:42:30.439Z,27.00
2019-02-15T04:45:02.773Z,28.38
2019-02-15T04:47:34.951Z,27.80
2019-02-15T04:50:08.868Z,28.90
2019-02-15T04:52:40.732Z,28.10
2019-02-15T04:55:13.556Z,26.90
2019-02-15T04:57:45.338Z,26.02
2019-02-15T05:00:18.160Z,26.77
2019-02-15T05:02:49.528Z,26.97
2019-02-15T05:05:22.048Z,26.68
2019-02-15T05:07:54.062Z,25.70
2019-02-15T05:10:26.316Z,25.50
2019-02-15T05:12:58.929Z,26.12
2019-02-15T05:15:29.865Z,26.60
2019-02-15T05:18:01.457Z,26.30
2019-02-15T05:20:34.477Z,26.00
2019-02-15T05:23:07.050Z,26.65
2019-02-15T05:25:38.732Z,24.32
2019-02-15T05:28:10.273Z,24.40
2019-02-15T05:30:41.259Z,24.75
2019-02-15T05:33:13.052Z,23.15
2019-02-15T05:35:45.521Z,24.10
2019-02-15T05:38:17.341Z,23.35
2019-02-15T05:40:51.124Z,23.32
2019-02-15T05:43:23.306Z,24.20
2019-02-15T05:45:54.409Z,22.87
2019-02-15T05:48:25.694Z,22.80
2019-02-15T05:50:57.203Z,21.65
2019-02-15T05:53:28.423Z,21.23
2019-02-15T05:56:00.366Z,22.50
2019-02-15T05:58:33.107Z,21.05
2019-02-15T06:01:04.918Z,21.60
2019-02-15T06:03:36.710Z,21.57
2019-02-15T06:06:07.816Z,20.30
2019-02-15T06:08:40.399Z,20.62
2019-02-15T06:11:12.058Z,22.10
2019-02-15T06:13:44.243Z,21.62
2019-02-15T06:16:16.496Z,21.43
2019-02-15T06:18:48.025Z,22.07
2019-02-15T06:21:20.051Z,21.82
2019-02-15T06:23:51.093Z,22.15
2019-02-15T06:26:23.539Z,21.77
2019-02-15T06:28:54.993Z,22.15
2019-02-15T06:31:26.387Z,21.25
2019-02-15T06:33:57.662Z,22.50
2019-02-15T06:36:32.316Z,22.43
2019-02-15T06:39:05.486Z,22.17
2019-02-15T06:41:37.562Z,22.17
2019-02-15T06:44:09.512Z,20.72
2019-02-15T06:46:42.824Z,22.05
2019-02-15T06:49:14.906Z,20.32
2019-02-15T07:14:15.916Z,20.40
2019-02-15T07:16:45.763Z,20.40
2019-02-15T07:19:15.736Z,20.62
2019-02-15T07:21:46.607Z,19.80
2019-02-15T07:24:16.525Z,20.87
2019-02-15T07:26:46.394Z,20.43
2019-02-15T07:29:16.206Z,19.55
2019-02-15T07:31:46.078Z,21.50
2019-02-15T07:34:20.489Z,19.07
2019-02-15T07:36:52.782Z,20.15
2019-02-15T07:39:24.162Z,18.80
2019-02-15T07:41:56.900Z,18.43
2019-02-15T07:44:26.784Z,17.83
2019-02-15T07:46:56.673Z,18.97
2019-02-15T07:49:27.230Z,18.82
2019-02-15T07:51:58.350Z,19.03
2019-02-15T07:54:29.463Z,18.43
2019-02-15T07:56:59.255Z,18.37
2019-02-15T07:59:29.044Z,17.00
2019-02-15T08:02:01.876Z,17.90
2019-02-15T08:04:30.360Z,18.13
2019-02-15T08:07:01.375Z,18.55
2019-02-15T08:09:31.413Z,18.37
2019-02-15T08:12:02.847Z,17.13
2019-02-15T08:14:34.133Z,16.80
2019-02-15T08:17:04.078Z,16.53
2019-02-15T08:19:34.047Z,17.43
2019-02-15T08:22:04.929Z,16.80
2019-02-15T08:24:34.723Z,17.50
2019-02-15T08:27:05.287Z,17.50
2019-02-15T08:29:35.047Z,15.70
2019-02-15T08:32:07.282Z,15.93
2019-02-15T08:34:37.289Z,15.53
2019-02-15T08:37:08.892Z,15.93
2019-02-15T08:39:40.075Z,16.37
2019-02-15T08:42:09.892Z,15.83
2019-02-15T08:44:42.525Z,15.73
2019-02-15T08:47:12.347Z,15.23
2019-02-15T08:49:42.231Z,15.23
2019-02-15T08:52:12.143Z,14.57
2019-02-15T08:54:42.071Z,14.30
2019-02-15T08:57:11.875Z,14.33
2019-02-15T08:59:42.042Z,15.63
2019-02-15T09:02:16.611Z,14.73
2019-02-15T09:04:46.459Z,14.70
2019-02-15T09:07:17.719Z,13.90
2019-02-15T09:09:48.787Z,14.93
2019-02-15T09:12:19.974Z,14.73
2019-02-15T09:14:49.949Z,13.77
2019-02-15T09:17:19.758Z,13.40
2019-02-15T09:19:50.242Z,14.23
2019-02-15T09:22:20.164Z,12.83
2019-02-15T09:24:51.616Z,13.70
2019-02-15T09:27:24.635Z,14.03
2019-02-15T09:29:54.523Z,12.17
2019-02-15T09:32:25.427Z,13.17
2019-02-15T09:34:56.870Z,11.83
2019-02-15T09:37:26.767Z,12.03
2019-02-15T09:39:59.927Z,11.47
2019-02-15T09:42:32.123Z,11.63
2019-02-15T09:45:01.964Z,12.20
2019-02-15T09:47:33.610Z,12.87
2019-02-15T09:50:04.693Z,13.27
2019-02-15T09:52:34.561Z,15.03
2019-02-15T09:55:06.054Z,14.20
2019-02-15T09:57:39.041Z,13.17
2019-02-15T10:00:10.540Z,13.57
2019-02-15T10:02:43.543Z,13.00
2019-02-15T10:05:17.458Z,13.17
2019-02-15T10:07:50.256Z,11.90
2019-02-15T10:10:27.682Z,12.10
2019-02-15T10:12:59.518Z,10.97
2019-02-15T10:15:29.547Z,11.67
2019-02-15T10:18:01.948Z,11.27
2019-02-15T10:20:31.832Z,10.87
2019-02-15T10:23:06.649Z,10.43
2019-02-15T10:25:40.779Z,10.57
2019-02-15T10:28:11.396Z,11.00
2019-02-15T10:30:44.133Z,10.50
2019-02-15T10:33:13.957Z,9.97
2019-02-15T10:35:45.005Z,10.13
2019-02-15T10:38:15.967Z,9.97
2019-02-15T10:40:51.748Z,10.13
2019-02-15T10:43:21.699Z,9.53
2019-02-15T10:45:56.123Z,9.70
2019-02-15T10:48:30.171Z,10.07
2019-02-15T10:51:03.092Z,9.63
2019-02-15T10:53:35.825Z,10.20
2019-02-15T10:56:08.969Z,10.33
2019-02-15T10:58:39.061Z,10.40
2019-02-15T11:01:08.895Z,9.53
2019-02-15T11:03:38.772Z,9.70
2019-02-15T11:06:10.654Z,10.27
2019-02-15T11:08:40.885Z,10.03
2019-02-15T11:11:10.740Z,10.13
2019-02-15T11:13:40.597Z,9.43
2019-02-15T11:16:12.069Z,8.90
2019-02-15T11:18:44.883Z,10.03
2019-02-15T11:21:14.754Z,9.37
2019-02-15T11:23:47.280Z,9.07
2019-02-15T11:26:24.533Z,9.57
2019-02-15T11:28:50.122Z,9.37
2019-02-15T11:31:20.417Z,8.90
2019-02-15T11:33:50.387Z,8.60
2019-02-15T11:36:20.248Z,8.50
2019-02-15T11:38:50.281Z,8.77
2019-02-15T11:41:20.262Z,9.53
2019-02-15T11:43:50.156Z,9.10
2019-02-15T11:46:21.899Z,8.17
2019-02-15T11:48:53.149Z,9.47
2019-02-15T11:51:23.072Z,9.30
2019-02-15T11:53:52.940Z,9.50
2019-02-15T11:56:22.836Z,9.53
2019-02-15T11:58:52.729Z,9.27
2019-02-15T12:01:22.718Z,8.90
2019-02-15T12:03:57.585Z,9.83
2019-02-15T12:06:29.006Z,9.50
2019-02-15T12:08:59.983Z,9.83
2019-02-15T12:11:31.020Z,9.50
2019-02-15T12:14:00.814Z,10.33
2019-02-15T12:16:32.082Z,10.77
2019-02-15T12:19:01.909Z,10.40
2019-02-15T12:21:31.721Z,10.80
2019-02-15T12:24:01.630Z,9.93
2019-02-15T12:26:31.418Z,9.67
2019-02-15T12:29:01.259Z,9.33
2019-02-15T12:31:31.767Z,9.17
2019-02-15T12:34:01.583Z,9.40
2019-02-15T12:36:31.461Z,9.40
2019-02-15T12:39:01.577Z,10.27
2019-02-15T12:41:31.524Z,10.30
2019-02-15T12:44:01.443Z,11.77
2019-02-15T12:46:31.277Z,11.37
2019-02-15T12:49:01.290Z,11.50
2019-02-15T12:51:31.267Z,11.33
2019-02-15T12:54:03.049Z,10.27
2019-02-15T12:56:34.559Z,10.37
2019-02-15T12:59:04.573Z,8.60
2019-02-15T13:01:35.913Z,8.70
2019-02-15T13:04:06.397Z,9.27
2019-02-15T13:06:36.356Z,9.17
2019-02-15T13:09:07.247Z,7.97
2019-02-15T13:11:38.399Z,8.87
2019-02-15T13:14:08.328Z,9.50
2019-02-15T13:16:39.448Z,10.73
2019-02-15T13:19:09.266Z,9.33
2019-02-15T13:21:42.100Z,9.23
2019-02-15T13:24:12.608Z,9.77
2019-02-15T13:26:42.510Z,9.70
2019-02-15T13:29:12.417Z,9.83
2019-02-15T13:31:42.226Z,10.63
2019-02-15T13:34:12.199Z,10.03
2019-02-15T13:36:45.420Z,10.00
2019-02-15T13:39:15.209Z,9.20
2019-02-15T13:41:45.010Z,8.20
2019-02-15T13:44:14.825Z,8.60
2019-02-15T13:46:46.208Z,7.70
2019-02-15T13:49:16.155Z,7.27
2019-02-15T13:51:45.998Z,7.90
2019-02-15T13:54:15.891Z,6.97
2019-02-15T13:56:46.217Z,7.67
2019-02-15T13:59:16.250Z,8.13
2019-02-15T14:01:46.031Z,8.70
2019-02-15T14:04:15.854Z,8.43
2019-02-15T14:06:53.500Z,8.73
2019-02-15T14:09:23.393Z,8.53
2019-02-15T14:11:54.708Z,9.03
2019-02-15T14:14:24.599Z,7.77
2019-02-15T14:16:54.441Z,8.90
2019-02-15T14:19:28.617Z,8.33
2019-02-15T14:21:59.155Z,7.77
2019-02-15T14:24:29.016Z,8.87
2019-02-15T14:26:58.986Z,7.93
2019-02-15T14:29:29.091Z,8.13
2019-02-15T14:31:58.921Z,8.17
2019-02-15T14:34:30.118Z,8.37
2019-02-15T14:36:59.948Z,8.33
2019-02-15T14:39:29.759Z,8.83
2019-02-15T14:41:59.549Z,8.43
2019-02-15T14:44:30.013Z,7.77
2019-02-15T14:46:59.925Z,7.77
2019-02-15T14:49:31.003Z,8.30
2019-02-15T14:52:00.843Z,7.93
2019-02-15T14:54:30.732Z,8.17
2019-02-15T14:57:01.241Z,7.57
2019-02-15T14:59:31.722Z,7.50
2019-02-15T15:02:01.684Z,7.40
2019-02-15T15:04:31.627Z,8.77
2019-02-15T15:07:01.396Z,7.63
2019-02-15T15:09:31.422Z,7.50
2019-02-15T15:12:01.183Z,8.00
2019-02-15T15:14:31.010Z,8.27
2019-02-15T15:17:01.864Z,7.40
2019-02-15T15:19:33.556Z,7.77
2019-02-15T15:22:03.365Z,7.77
2019-02-15T15:24:34.322Z,7.53
2019-02-15T15:27:06.702Z,7.97
2019-02-15T15:29:38.849Z,8.50
2019-02-15T15:32:08.941Z,7.37
2019-02-15T15:34:50.144Z,8.00
2019-02-15T15:37:20.074Z,7.67
2019-02-15T15:39:49.885Z,9.17
2019-02-15T15:42:21.413Z,8.67
2019-02-15T15:44:51.270Z,8.30
2019-02-15T15:47:21.124Z,7.87
2019-02-15T15:49:51.126Z,8.07
2019-02-15T15:52:21.132Z,8.17
2019-02-15T15:54:53.125Z,8.00
2019-02-15T15:57:24.335Z,7.73
2019-02-15T15:59:56.661Z,8.37
2019-02-15T16:02:26.543Z,7.57
2019-02-15T16:04:56.447Z,6.80
2019-02-15T16:07:35.623Z,7.23
2019-02-15T16:10:10.940Z,7.10
2019-02-15T16:12:40.744Z,7.37
2019-02-15T16:15:12.563Z,6.93
2019-02-15T16:17:43.044Z,6.50
2019-02-15T16:20:13.980Z,6.50
2019-02-15T16:22:43.689Z,6.63
2019-02-15T16:25:13.508Z,7.10
2019-02-15T16:27:46.257Z,7.07
2019-02-15T16:30:16.526Z,6.20
2019-02-15T16:32:48.079Z,5.33
2019-02-15T16:35:18.142Z,6.30
2019-02-15T16:37:47.997Z,6.17
2019-02-15T16:40:17.931Z,6.63
2019-02-15T16:42:48.774Z,6.83
2019-02-15T16:45:18.615Z,9.83
2019-02-15T16:47:48.378Z,17.00
2019-02-15T16:50:19.141Z,15.37
2019-02-15T16:52:48.950Z,10.50
2019-02-15T16:55:18.866Z,13.20
2019-02-15T16:57:48.704Z,13.43
2019-02-15T17:00:18.959Z,11.27
2019-02-15T17:02:48.764Z,9.83
2019-02-15T17:05:18.768Z,11.87
2019-02-15T17:07:49.132Z,9.63
2019-02-15T17:10:19.028Z,10.07
2019-02-15T17:12:48.903Z,9.87
2019-02-15T17:15:18.827Z,13.03
2019-02-15T17:17:54.929Z,12.03
2019-02-15T17:20:24.861Z,10.43
2019-02-15T17:22:54.810Z,9.40
2019-02-15T17:25:24.722Z,11.23
2019-02-15T17:27:54.550Z,13.70
2019-02-15T17:30:25.991Z,42.93
2019-02-15T17:32:57.741Z,29.70
2019-02-15T17:35:27.619Z,34.40
2019-02-15T17:37:58.968Z,29.63
2019-02-15T17:40:29.387Z,27.03
2019-02-15T17:43:00.111Z,33.13
2019-02-15T17:45:29.953Z,35.93
2019-02-15T17:47:59.822Z,24.40
2019-02-15T17:50:30.982Z,20.20
2019-02-15T17:53:02.142Z,21.17
2019-02-15T17:55:34.196Z,24.03
2019-02-15T17:58:05.848Z,70.63
2019-02-15T18:00:37.340Z,24.43
2019-02-15T18:03:07.115Z,19.03
2019-02-15T18:05:37.003Z,14.27
2019-02-15T18:08:13.864Z,23.53
2019-02-15T18:10:45.872Z,15.00
2019-02-15T18:13:18.327Z,14.43
2019-02-15T18:15:48.074Z,29.00
2019-02-15T18:18:17.885Z,24.17
2019-02-15T18:20:47.723Z,27.13
2019-02-15T18:23:17.692Z,14.27
2019-02-15T18:25:48.695Z,15.70
2019-02-15T18:28:19.258Z,14.60
2019-02-15T18:30:49.036Z,13.23
2019-02-15T18:36:24.224Z,11.47
2019-02-15T18:38:55.252Z,10.17
2019-02-15T18:41:26.219Z,13.47
2019-02-15T18:43:56.719Z,10.80
2019-02-15T18:46:27.891Z,11.70
2019-02-15T18:49:00.491Z,10.47
2019-02-15T18:51:30.997Z,11.60
2019-02-15T18:54:01.993Z,11.73
2019-02-15T18:56:33.073Z,11.67
2019-02-15T18:59:04.949Z,9.77
2019-02-15T19:01:35.976Z,9.23
2019-02-15T19:04:07.190Z,8.70
2019-02-15T19:06:38.516Z,7.37
2019-02-15T19:09:09.518Z,6.90
2019-02-15T19:11:40.154Z,6.53
2019-02-15T19:14:11.080Z,7.10
2019-02-15T19:16:41.880Z,7.03
2019-02-15T19:19:12.402Z,7.33
2019-02-15T19:21:43.067Z,7.40
2019-02-15T19:24:14.514Z,7.97
2019-02-15T19:26:45.353Z,8.03
2019-02-15T19:29:15.928Z,7.23
2019-02-15T19:31:47.768Z,6.53
2019-02-15T19:34:18.067Z,6.63
2019-02-15T19:36:48.419Z,7.40
2019-02-15T19:39:18.734Z,6.93
2019-02-15T19:41:49.673Z,6.40
2019-02-15T19:44:23.173Z,8.03
2019-02-15T19:46:57.081Z,7.27
2019-02-15T19:49:38.533Z,7.47
2019-02-15T19:52:09.979Z,8.10
2019-02-15T19:54:44.029Z,6.87
2019-02-15T19:57:15.004Z,7.93
2019-02-15T19:59:54.329Z,7.40
2019-02-15T20:05:54.735Z,7.10
2019-02-15T20:08:25.160Z,8.70
2019-02-15T20:10:59.486Z,7.97
2019-02-15T20:13:30.567Z,6.93
2019-02-15T20:16:01.403Z,7.43
2019-02-15T20:18:31.858Z,7.97
2019-02-15T20:21:08.482Z,7.80
2019-02-15T20:23:43.685Z,7.97
2019-02-15T20:26:17.046Z,8.27
2019-02-15T20:28:55.036Z,8.57
2019-02-15T20:34:57.373Z,7.60
2019-02-15T20:37:17.260Z,8.17
2019-02-15T20:39:48.088Z,8.63
2019-02-15T20:42:18.414Z,6.73
2019-02-15T20:44:49.679Z,5.87
2019-02-15T20:47:21.991Z,10.17
2019-02-15T20:49:58.063Z,8.53
2019-02-15T20:52:27.111Z,8.57
2019-02-15T20:54:58.308Z,7.30
2019-02-15T20:57:28.442Z,7.30
2019-02-15T20:59:59.559Z,6.50
2019-02-15T21:02:32.149Z,5.70
2019-02-15T21:05:05.287Z,6.90
2019-02-15T21:07:37.013Z,5.97
2019-02-15T21:10:11.769Z,6.13
2019-02-15T21:12:44.273Z,6.70
2019-02-15T21:15:15.503Z,7.57
2019-02-15T21:17:46.608Z,6.97
2019-02-15T21:20:17.892Z,8.00
2019-02-15T21:22:48.984Z,6.97
2019-02-15T21:25:21.290Z,6.70
2019-02-15T21:27:52.902Z,7.53
2019-02-15T21:30:23.739Z,16.37
2019-02-15T21:32:54.584Z,12.43
2019-02-15T21:35:26.850Z,10.20
2019-02-15T21:37:59.339Z,8.97
2019-02-15T21:40:29.781Z,12.93
2019-02-15T21:43:03.653Z,8.97
2019-02-15T21:45:35.526Z,12.13
2019-02-15T21:48:07.935Z,16.07
2019-02-15T21:50:39.079Z,9.93
2019-02-15T21:53:09.995Z,9.90
2019-02-15T21:55:40.562Z,8.30
2019-02-15T21:58:11.146Z,7.40
2019-02-15T22:00:42.533Z,6.83
2019-02-15T22:03:13.609Z,7.30
2019-02-15T22:05:44.098Z,7.10
2019-02-15T22:08:14.733Z,6.63
2019-02-15T22:10:47.064Z,9.70
2019-02-15T22:13:18.559Z,7.93
2019-02-15T22:15:49.835Z,6.47
2019-02-15T22:18:20.867Z,8.73
2019-02-15T22:20:53.584Z,6.77
2019-02-15T22:23:24.490Z,6.57
2019-02-15T22:25:55.053Z,6.43
2019-02-15T22:28:26.167Z,6.53
2019-02-15T22:30:57.707Z,6.60
2019-02-15T22:33:29.467Z,7.17
2019-02-15T22:36:01.062Z,5.67
2019-02-15T22:38:32.295Z,5.97
2019-02-15T22:41:08.777Z,5.77
2019-02-15T22:43:40.318Z,6.10
2019-02-15T22:46:10.955Z,6.40
2019-02-15T22:48:41.456Z,6.20
2019-02-15T22:51:12.042Z,5.90
2019-02-15T22:53:42.266Z,6.40
2019-02-15T22:56:13.043Z,6.97
2019-02-15T22:58:43.296Z,6.43
2019-02-15T23:01:16.456Z,6.63
2019-02-15T23:03:47.288Z,6.67
2019-02-15T23:06:20.428Z,6.00
2019-02-15T23:08:50.875Z,7.03
2019-02-15T23:11:24.563Z,6.63
2019-02-15T23:16:40.262Z,6.97
2019-02-15T23:19:10.862Z,7.40
2019-02-15T23:21:43.493Z,6.07
2019-02-15T23:24:15.286Z,6.47
2019-02-15T23:26:46.643Z,6.73
2019-02-15T23:29:18.204Z,6.07
2019-02-15T23:31:49.911Z,6.73
2019-02-15T23:34:21.315Z,6.80
2019-02-15T23:36:51.501Z,6.40
2019-02-15T23:39:22.483Z,7.67
2019-02-15T23:41:53.486Z,6.90
2019-02-15T23:44:25.202Z,7.20
